sensor_id;sensor_type;location;lat;lon;timestamp;pressure;altitude;pressure_sealevel;temperature;humidity
10606;BME280;5350;42.698;23.148;2023-04-09T00:00:08;93829.19;;;7.76;100.00
10606;BME280;5350;42.698;23.148;2023-04-09T00:02:35;93829.19;;;7.76;100.00
10606;BME280;5350;42.698;23.148;2023-04-09T00:05:02;93833.38;;;7.77;100.00
10606;BME280;5350;42.698;23.148;2023-04-09T00:07:30;93832.84;;;7.80;100.00
10606;BME280;5350;42.698;23.148;2023-04-09T00:09:57;93833.38;;;7.77;100.00
10606;BME280;5350;42.698;23.148;2023-04-09T00:12:24;93835.19;;;7.76;100.00
10606;BME280;5350;42.698;23.148;2023-04-09T00:14:50;93839.13;;;7.79;100.00
10606;BME280;5350;42.698;23.148;2023-04-09T00:17:17;93841.78;;;7.74;100.00
10606;BME280;5350;42.698;23.148;2023-04-09T00:19:44;93845.94;;;7.70;100.00
10606;BME280;5350;42.698;23.148;2023-04-09T00:22:11;93845.69;;;7.71;100.00
10606;BME280;5350;42.698;23.148;2023-04-09T00:24:39;93845.19;;;7.69;100.00
10606;BME280;5350;42.698;23.148;2023-04-09T00:27:05;93851.44;;;7.68;100.00
10606;BME280;5350;42.698;23.148;2023-04-09T00:29:32;93847.78;;;7.64;100.00
10606;BME280;5350;42.698;23.148;2023-04-09T00:31:59;93839.16;;;7.69;100.00
10606;BME280;5350;42.698;23.148;2023-04-09T00:34:26;93849.63;;;7.69;100.00
10606;BME280;5350;42.698;23.148;2023-04-09T00:36:52;93842.81;;;7.68;100.00
10606;BME280;5350;42.698;23.148;2023-04-09T00:39:19;93847.00;;;7.69;100.00
10606;BME280;5350;42.698;23.148;2023-04-09T00:41:47;93845.94;;;7.70;100.00
10606;BME280;5350;42.698;23.148;2023-04-09T00:44:14;93845.19;;;7.69;100.00
10606;BME280;5350;42.698;23.148;2023-04-09T00:46:40;93848.31;;;7.71;100.00
10606;BME280;5350;42.698;23.148;2023-04-09T00:49:07;93845.16;;;7.74;100.00
10606;BME280;5350;42.698;23.148;2023-04-09T00:51:34;93842.28;;;7.76;100.00
10606;BME280;5350;42.698;23.148;2023-04-09T00:54:01;93831.53;;;7.77;100.00
10606;BME280;5350;42.698;23.148;2023-04-09T00:56:28;93836.25;;;7.75;100.00
10606;BME280;5350;42.698;23.148;2023-04-09T00:58:57;93836.00;;;7.77;100.00
10606;BME280;5350;42.698;23.148;2023-04-09T01:01:23;93843.31;;;7.80;100.00
10606;BME280;5350;42.698;23.148;2023-04-09T01:03:50;93844.88;;;7.81;100.00
10606;BME280;5350;42.698;23.148;2023-04-09T01:06:23;93851.69;;;7.77;100.00
10606;BME280;5350;42.698;23.148;2023-04-09T01:09:01;93848.03;;;7.68;100.00
10606;BME280;5350;42.698;23.148;2023-04-09T01:11:36;93848.06;;;7.63;100.00
10606;BME280;5350;42.698;23.148;2023-04-09T01:14:10;93851.75;;;7.57;100.00
10606;BME280;5350;42.698;23.148;2023-04-09T01:16:41;93849.66;;;7.54;100.00
10606;BME280;5350;42.698;23.148;2023-04-09T01:19:18;93849.38;;;7.55;100.00
10606;BME280;5350;42.698;23.148;2023-04-09T01:21:49;93853.03;;;7.49;100.00
10606;BME280;5350;42.698;23.148;2023-04-09T01:24:25;93856.97;;;7.52;100.00
10606;BME280;5350;42.698;23.148;2023-04-09T01:26:58;93851.22;;;7.50;100.00
10606;BME280;5350;42.698;23.148;2023-04-09T01:29:32;93853.31;;;7.53;100.00
10606;BME280;5350;42.698;23.148;2023-04-09T01:32:00;93850.16;;;7.56;100.00
10606;BME280;5350;42.698;23.148;2023-04-09T01:34:28;93844.13;;;7.55;100.00
10606;BME280;5350;42.698;23.148;2023-04-09T01:36:57;93848.34;;;7.61;100.00
10606;BME280;5350;42.698;23.148;2023-04-09T01:39:25;93822.19;;;7.46;100.00
10606;BME280;5350;42.698;23.148;2023-04-09T01:41:52;93848.06;;;7.58;100.00
10606;BME280;5350;42.698;23.148;2023-04-09T01:44:20;93851.75;;;7.57;100.00
10606;BME280;5350;42.698;23.148;2023-04-09T01:46:50;93849.66;;;7.59;100.00
10606;BME280;5350;42.698;23.148;2023-04-09T01:49:18;93855.94;;;7.63;100.00
10606;BME280;5350;42.698;23.148;2023-04-09T01:51:46;93845.19;;;7.64;100.00
10606;BME280;5350;42.698;23.148;2023-04-09T01:54:13;93844.41;;;7.59;100.00
10606;BME280;5350;42.698;23.148;2023-04-09T01:56:41;93846.50;;;7.62;100.00
10606;BME280;5350;42.698;23.148;2023-04-09T01:59:08;93843.91;;;7.57;100.00
10606;BME280;5350;42.698;23.148;2023-04-09T02:01:38;93843.38;;;7.55;100.00
10606;BME280;5350;42.698;23.148;2023-04-09T02:04:15;93843.91;;;7.57;100.00
10606;BME280;5350;42.698;23.148;2023-04-09T02:06:46;93842.59;;;7.59;100.00
10606;BME280;5350;42.698;23.148;2023-04-09T02:09:16;93836.81;;;7.57;100.00
10606;BME280;5350;42.698;23.148;2023-04-09T02:11:45;93837.34;;;7.54;100.00
10606;BME280;5350;42.698;23.148;2023-04-09T02:14:14;93839.97;;;7.59;100.00
10606;BME280;5350;42.698;23.148;2023-04-09T02:16:41;93830.25;;;7.60;100.00
10606;BME280;5350;42.698;23.148;2023-04-09T02:19:10;93838.34;;;7.68;100.00
10606;BME280;5350;42.698;23.148;2023-04-09T02:21:37;93838.59;;;7.72;100.00
10606;BME280;5350;42.698;23.148;2023-04-09T02:24:04;93845.66;;;7.76;100.00
10606;BME280;5350;42.698;23.148;2023-04-09T02:26:30;93834.69;;;7.79;100.00
10606;BME280;5350;42.698;23.148;2023-04-09T02:28:57;93840.94;;;7.83;100.00
10606;BME280;5350;42.698;23.148;2023-04-09T02:31:24;93847.22;;;7.87;100.00
10606;BME280;5350;42.698;23.148;2023-04-09T02:33:51;93840.69;;;7.90;100.00
10606;BME280;5350;42.698;23.148;2023-04-09T02:36:19;93829.69;;;7.83;100.00
10606;BME280;5350;42.698;23.148;2023-04-09T02:38:46;93844.59;;;7.92;100.00
10606;BME280;5350;42.698;23.148;2023-04-09T02:41:13;93841.72;;;7.94;100.00
10606;BME280;5350;42.698;23.148;2023-04-09T02:43:40;93841.16;;;7.97;100.00
10606;BME280;5350;42.698;23.148;2023-04-09T02:46:06;93838.81;;;7.95;100.00
10606;BME280;5350;42.698;23.148;2023-04-09T02:48:33;93828.88;;;7.92;100.00
10606;BME280;5350;42.698;23.148;2023-04-09T02:51:00;93832.53;;;7.96;100.00
10606;BME280;5350;42.698;23.148;2023-04-09T02:53:28;93832.78;;;7.95;100.00
10606;BME280;5350;42.698;23.148;2023-04-09T02:55:55;93829.16;;;7.86;100.00
10606;BME280;5350;42.698;23.148;2023-04-09T02:58:22;93827.59;;;7.85;100.00
10606;BME280;5350;42.698;23.148;2023-04-09T03:00:48;93829.16;;;7.81;100.00
10606;BME280;5350;42.698;23.148;2023-04-09T03:03:15;93829.69;;;7.83;100.00
10606;BME280;5350;42.698;23.148;2023-04-09T03:05:42;93834.13;;;7.82;100.00
10606;BME280;5350;42.698;23.148;2023-04-09T03:08:08;93832.56;;;7.81;100.00
10606;BME280;5350;42.698;23.148;2023-04-09T03:10:36;93837.03;;;7.81;100.00
10606;BME280;5350;42.698;23.148;2023-04-09T03:13:03;93831.28;;;7.84;100.00
10606;BME280;5350;42.698;23.148;2023-04-09T03:15:30;93819.47;;;7.76;100.00
10606;BME280;5350;42.698;23.148;2023-04-09T03:17:57;93817.13;;;7.75;100.00
10606;BME280;5350;42.698;23.148;2023-04-09T03:20:23;93828.66;;;7.79;100.00
10606;BME280;5350;42.698;23.148;2023-04-09T03:22:50;93826.53;;;7.81;100.00
10606;BME280;5350;42.698;23.148;2023-04-09T03:25:17;93827.09;;;7.78;100.00
10606;BME280;5350;42.698;23.148;2023-04-09T03:27:46;93836.25;;;7.75;100.00
10606;BME280;5350;42.698;23.148;2023-04-09T03:30:13;93820.28;;;7.77;100.00
10606;BME280;5350;42.698;23.148;2023-04-09T03:32:39;93824.47;;;7.73;100.00
10606;BME280;5350;42.698;23.148;2023-04-09T03:35:07;93825.00;;;7.70;100.00
10606;BME280;5350;42.698;23.148;2023-04-09T03:37:33;93827.63;;;7.70;100.00
10606;BME280;5350;42.698;23.148;2023-04-09T03:40:00;93821.34;;;7.71;100.00
10606;BME280;5350;42.698;23.148;2023-04-09T03:42:28;93830.25;;;7.65;100.00
10606;BME280;5350;42.698;23.148;2023-04-09T03:44:56;93829.47;;;7.64;100.00
10606;BME280;5350;42.698;23.148;2023-04-09T03:47:23;93836.28;;;7.65;100.00
10606;BME280;5350;42.698;23.148;2023-04-09T03:49:49;93831.56;;;7.67;100.00
10606;BME280;5350;42.698;23.148;2023-04-09T03:52:16;93839.16;;;7.69;100.00
10606;BME280;5350;42.698;23.148;2023-04-09T03:54:43;93834.72;;;7.69;100.00
10606;BME280;5350;42.698;23.148;2023-04-09T03:57:10;93842.31;;;7.61;100.00
10606;BME280;5350;42.698;23.148;2023-04-09T03:59:36;93838.94;;;7.40;100.00
10606;BME280;5350;42.698;23.148;2023-04-09T04:02:04;93835.00;;;7.43;100.00
10606;BME280;5350;42.698;23.148;2023-04-09T04:04:31;93842.59;;;7.44;100.00
10606;BME280;5350;42.698;23.148;2023-04-09T04:06:58;93845.47;;;7.43;100.00
10606;BME280;5350;42.698;23.148;2023-04-09T04:09:25;93843.41;;;7.45;100.00
10606;BME280;5350;42.698;23.148;2023-04-09T04:11:51;93846.00;;;7.40;100.00
10606;BME280;5350;42.698;23.148;2023-04-09T04:14:19;93852.53;;;7.47;100.00
10606;BME280;5350;42.698;23.148;2023-04-09T04:16:46;93842.63;;;7.34;100.00
10606;BME280;5350;42.698;23.148;2023-04-09T04:19:14;93849.41;;;7.25;100.00
10606;BME280;5350;42.698;23.148;2023-04-09T04:21:41;93850.72;;;7.28;100.00
10606;BME280;5350;42.698;23.148;2023-04-09T04:24:07;93843.66;;;7.33;100.00
10606;BME280;5350;42.698;23.148;2023-04-09T04:26:34;93849.66;;;7.39;100.00
10606;BME280;5350;42.698;23.148;2023-04-09T04:29:01;93847.59;;;7.36;100.00
10606;BME280;5350;42.698;23.148;2023-04-09T04:31:27;93841.28;;;7.37;100.00
10606;BME280;5350;42.698;23.148;2023-04-09T04:33:54;93862.75;;;7.34;100.00
10606;BME280;5350;42.698;23.148;2023-04-09T04:36:22;93847.56;;;7.41;100.00
10606;BME280;5350;42.698;23.148;2023-04-09T04:38:49;93855.16;;;7.42;100.00
10606;BME280;5350;42.698;23.148;2023-04-09T04:41:15;93853.84;;;7.50;100.00
10606;BME280;5350;42.698;23.148;2023-04-09T04:43:42;93850.72;;;7.53;100.00
10606;BME280;5350;42.698;23.148;2023-04-09T04:46:09;93845.47;;;7.53;100.00
10606;BME280;5350;42.698;23.148;2023-04-09T04:48:35;93847.28;;;7.57;100.00
10606;BME280;5350;42.698;23.148;2023-04-09T04:51:02;93847.03;;;7.59;100.00
10606;BME280;5350;42.698;23.148;2023-04-09T04:53:31;93852.75;;;7.66;100.00
10606;BME280;5350;42.698;23.148;2023-04-09T04:55:57;93860.63;;;7.66;100.00
10606;BME280;5350;42.698;23.148;2023-04-09T04:58:24;93855.13;;;7.67;100.00
10606;BME280;5350;42.698;23.148;2023-04-09T05:00:51;93850.44;;;7.59;100.00
10606;BME280;5350;42.698;23.148;2023-04-09T05:03:17;93858.50;;;7.68;100.00
10606;BME280;5350;42.698;23.148;2023-04-09T05:05:44;93853.81;;;7.60;100.00
10606;BME280;5350;42.698;23.148;2023-04-09T05:08:11;93858.81;;;7.61;100.00
10606;BME280;5350;42.698;23.148;2023-04-09T05:10:41;93858.03;;;7.61;100.00
10606;BME280;5350;42.698;23.148;2023-04-09T05:13:08;93851.97;;;7.70;100.00
10606;BME280;5350;42.698;23.148;2023-04-09T05:15:37;93848.03;;;7.73;100.00
10606;BME280;5350;42.698;23.148;2023-04-09T05:18:04;93853.28;;;7.73;100.00
10606;BME280;5350;42.698;23.148;2023-04-09T05:20:32;93854.06;;;7.68;100.00
10606;BME280;5350;42.698;23.148;2023-04-09T05:22:59;93857.47;;;7.69;100.00
10606;BME280;5350;42.698;23.148;2023-04-09T05:25:25;93856.72;;;7.63;100.00
10606;BME280;5350;42.698;23.148;2023-04-09T05:27:54;93858.78;;;7.66;100.00
10606;BME280;5350;42.698;23.148;2023-04-09T05:30:20;93850.66;;;7.73;100.00
10606;BME280;5350;42.698;23.148;2023-04-09T05:32:47;93851.94;;;7.80;100.00
10606;BME280;5350;42.698;23.148;2023-04-09T05:35:14;93846.94;;;7.89;100.00
10606;BME280;5350;42.698;23.148;2023-04-09T05:37:40;93851.91;;;8.00;100.00
10606;BME280;5350;42.698;23.148;2023-04-09T05:40:08;93855.84;;;8.03;100.00
10606;BME280;5350;42.698;23.148;2023-04-09T05:42:35;93856.81;;;8.12;100.00
10606;BME280;5350;42.698;23.148;2023-04-09T05:45:04;93854.44;;;8.21;100.00
10606;BME280;5350;42.698;23.148;2023-04-09T05:47:31;93865.19;;;8.29;100.00
10606;BME280;5350;42.698;23.148;2023-04-09T05:49:58;93864.41;;;8.24;100.00
10606;BME280;5350;42.698;23.148;2023-04-09T05:52:24;93859.97;;;8.19;100.00
10606;BME280;5350;42.698;23.148;2023-04-09T05:54:51;93858.91;;;8.30;100.00
10606;BME280;5350;42.698;23.148;2023-04-09T05:57:18;93865.13;;;8.39;100.00
10606;BME280;5350;42.698;23.148;2023-04-09T05:59:44;93861.50;;;8.35;100.00
10606;BME280;5350;42.698;23.148;2023-04-09T06:02:12;93855.75;;;8.23;100.00
10606;BME280;5350;42.698;23.148;2023-04-09T06:04:39;93862.56;;;8.34;100.00
10606;BME280;5350;42.698;23.148;2023-04-09T06:07:06;93864.91;;;8.31;100.00
10606;BME280;5350;42.698;23.148;2023-04-09T06:09:32;93853.38;;;8.32;100.00
10606;BME280;5350;42.698;23.148;2023-04-09T06:11:59;93858.59;;;8.42;100.00
10606;BME280;5350;42.698;23.148;2023-04-09T06:14:26;93860.41;;;8.41;100.00
10606;BME280;5350;42.698;23.148;2023-04-09T06:16:53;93866.69;;;8.45;100.00
10606;BME280;5350;42.698;23.148;2023-04-09T06:19:21;93867.00;;;8.34;100.00
10606;BME280;5350;42.698;23.148;2023-04-09T06:21:48;93871.41;;;8.43;100.00
10606;BME280;5350;42.698;23.148;2023-04-09T06:24:15;93874.28;;;8.47;100.00
10606;BME280;5350;42.698;23.148;2023-04-09T06:26:41;93869.28;;;8.50;100.00
10606;BME280;5350;42.698;23.148;2023-04-09T06:29:08;93876.59;;;8.53;100.00
10606;BME280;5350;42.698;23.148;2023-04-09T06:31:35;93878.13;;;8.64;100.00
10606;BME280;5350;42.698;23.148;2023-04-09T06:34:01;93880.41;;;8.81;100.00
10606;BME280;5350;42.698;23.148;2023-04-09T06:36:31;93879.06;;;8.83;100.00
10606;BME280;5350;42.698;23.148;2023-04-09T06:38:59;93882.88;;;9.01;100.00
10606;BME280;5350;42.698;23.148;2023-04-09T06:41:25;93881.75;;;9.17;100.00
10606;BME280;5350;42.698;23.148;2023-04-09T06:43:53;93877.91;;;9.38;100.00
10606;BME280;5350;42.698;23.148;2023-04-09T06:46:20;93884.31;;;9.56;100.00
10606;BME280;5350;42.698;23.148;2023-04-09T06:48:46;93884.47;;;9.70;100.00
10606;BME280;5350;42.698;23.148;2023-04-09T06:51:13;93882.03;;;9.78;100.00
10606;BME280;5350;42.698;23.148;2023-04-09T06:53:41;93885.94;;;9.81;100.00
10606;BME280;5350;42.698;23.148;2023-04-09T06:56:08;93880.81;;;9.94;100.00
10606;BME280;5350;42.698;23.148;2023-04-09T06:58:35;93876.44;;;9.85;100.00
10606;BME280;5350;42.698;23.148;2023-04-09T07:01:01;93883.94;;;9.96;100.00
10606;BME280;5350;42.698;23.148;2023-04-09T07:03:29;93882.16;;;9.92;100.00
10606;BME280;5350;42.698;23.148;2023-04-09T07:05:56;93880.72;;;10.04;100.00
10606;BME280;5350;42.698;23.148;2023-04-09T07:08:23;93883.38;;;9.99;100.00
10606;BME280;5350;42.698;23.148;2023-04-09T07:10:52;93883.84;;;10.06;100.00
10606;BME280;5350;42.698;23.148;2023-04-09T07:13:19;93889.03;;;9.88;100.00
10606;BME280;5350;42.698;23.148;2023-04-09T07:15:46;93881.31;;;9.96;100.00
10606;BME280;5350;42.698;23.148;2023-04-09T07:18:13;93891.25;;;9.99;100.00
10606;BME280;5350;42.698;23.148;2023-04-09T07:20:39;93891.19;;;10.09;100.00
10606;BME280;5350;42.698;23.148;2023-04-09T07:23:06;93890.47;;;10.27;100.00
10606;BME280;5350;42.698;23.148;2023-04-09T07:25:33;93894.34;;;10.06;100.00
10606;BME280;5350;42.698;23.148;2023-04-09T07:28:01;93904.25;;;10.19;100.00
10606;BME280;5350;42.698;23.148;2023-04-09T07:30:27;93892.91;;;10.24;100.00
10606;BME280;5350;42.698;23.148;2023-04-09T07:32:54;93896.00;;;10.50;100.00
10606;BME280;5350;42.698;23.148;2023-04-09T07:35:21;93901.53;;;10.24;97.33
10606;BME280;5350;42.698;23.148;2023-04-09T07:37:48;93898.41;;;10.22;100.00
10606;BME280;5350;42.698;23.148;2023-04-09T07:40:15;93893.66;;;10.48;100.00
10606;BME280;5350;42.698;23.148;2023-04-09T07:42:41;93885.00;;;10.66;100.00
10606;BME280;5350;42.698;23.148;2023-04-09T07:45:09;93901.25;;;10.50;96.58
10606;BME280;5350;42.698;23.148;2023-04-09T07:47:37;93897.72;;;10.40;94.85
10606;BME280;5350;42.698;23.148;2023-04-09T07:50:06;93894.81;;;10.61;98.85
10606;BME280;5350;42.698;23.148;2023-04-09T07:52:32;93896.41;;;10.62;97.93
10606;BME280;5350;42.698;23.148;2023-04-09T07:54:59;93901.31;;;10.68;97.47
10606;BME280;5350;42.698;23.148;2023-04-09T07:57:26;93910.84;;;10.83;96.45
10606;BME280;5350;42.698;23.148;2023-04-09T07:59:53;93907.72;;;10.81;93.67
10606;BME280;5350;42.698;23.148;2023-04-09T08:02:21;93903.59;;;10.75;92.66
10606;BME280;5350;42.698;23.148;2023-04-09T08:04:48;93917.59;;;10.70;90.64
10606;BME280;5350;42.698;23.148;2023-04-09T08:07:15;93909.56;;;10.62;85.14
10606;BME280;5350;42.698;23.148;2023-04-09T08:09:42;93919.56;;;10.60;88.11
10606;BME280;5350;42.698;23.148;2023-04-09T08:12:08;93912.75;;;10.59;84.84
10606;BME280;5350;42.698;23.148;2023-04-09T08:14:35;93922.00;;;10.75;85.91
10606;BME280;5350;42.698;23.148;2023-04-09T08:17:02;93902.09;;;10.69;84.67
10606;BME280;5350;42.698;23.148;2023-04-09T08:19:30;93911.78;;;10.92;85.29
10606;BME280;5350;42.698;23.148;2023-04-09T08:21:56;93916.84;;;10.88;85.02
10606;BME280;5350;42.698;23.148;2023-04-09T08:24:23;93905.38;;;10.98;86.34
10606;BME280;5350;42.698;23.148;2023-04-09T08:26:50;93919.13;;;11.13;84.35
10606;BME280;5350;42.698;23.148;2023-04-09T08:29:16;93911.38;;;11.41;84.55
10606;BME280;5350;42.698;23.148;2023-04-09T08:31:43;93915.56;;;11.23;82.80
10606;BME280;5350;42.698;23.148;2023-04-09T08:34:10;93904.59;;;11.53;86.01
10606;BME280;5350;42.698;23.148;2023-04-09T08:36:38;93914.91;;;11.68;79.78
10606;BME280;5350;42.698;23.148;2023-04-09T08:39:05;93896.09;;;11.75;83.36
10606;BME280;5350;42.698;23.148;2023-04-09T08:41:33;93901.47;;;11.70;81.05
10606;BME280;5350;42.698;23.148;2023-04-09T08:44:01;93898.97;;;11.92;79.13
10606;BME280;5350;42.698;23.148;2023-04-09T08:46:28;93899.56;;;11.89;76.84
10606;BME280;5350;42.698;23.148;2023-04-09T08:48:55;93899.72;;;11.60;77.26
10606;BME280;5350;42.698;23.148;2023-04-09T08:51:23;93892.19;;;11.54;79.22
10606;BME280;5350;42.698;23.148;2023-04-09T08:53:55;93891.44;;;11.35;79.27
10606;BME280;5350;42.698;23.148;2023-04-09T08:56:22;93893.94;;;11.45;80.65
10606;BME280;5350;42.698;23.148;2023-04-09T08:58:49;93883.25;;;11.36;80.70
10606;BME280;5350;42.698;23.148;2023-04-09T09:01:20;93898.56;;;11.34;79.29
10606;BME280;5350;42.698;23.148;2023-04-09T09:03:55;93900.97;;;11.12;79.47
10606;BME280;5350;42.698;23.148;2023-04-09T09:06:23;93891.03;;;11.09;81.69
10606;BME280;5350;42.698;23.148;2023-04-09T09:09:05;93898.44;;;11.07;82.77
10606;BME280;5350;42.698;23.148;2023-04-09T09:11:32;93898.06;;;11.13;82.81
10606;BME280;5350;42.698;23.148;2023-04-09T09:14:01;93895.09;;;11.20;80.86
10606;BME280;5350;42.698;23.148;2023-04-09T09:16:28;93893.44;;;11.24;82.68
10606;BME280;5350;42.698;23.148;2023-04-09T09:18:55;93879.91;;;11.12;82.38
10606;BME280;5350;42.698;23.148;2023-04-09T09:21:22;93886.75;;;11.32;82.95
10606;BME280;5350;42.698;23.148;2023-04-09T09:23:50;93876.28;;;11.26;81.27
10606;BME280;5350;42.698;23.148;2023-04-09T09:26:20;93889.22;;;11.42;81.99
10606;BME280;5350;42.698;23.148;2023-04-09T09:28:48;93883.91;;;11.60;79.66
10606;BME280;5350;42.698;23.148;2023-04-09T09:31:15;93876.47;;;11.81;79.66
10606;BME280;5350;42.698;23.148;2023-04-09T09:33:42;93881.56;;;11.59;77.03
10606;BME280;5350;42.698;23.148;2023-04-09T09:36:09;93885.16;;;11.49;79.37
10606;BME280;5350;42.698;23.148;2023-04-09T09:38:51;93879.31;;;11.52;77.90
10606;BME280;5350;42.698;23.148;2023-04-09T09:41:20;93872.06;;;11.44;79.58
10606;BME280;5350;42.698;23.148;2023-04-09T09:43:47;93882.78;;;11.48;79.29
10606;BME280;5350;42.698;23.148;2023-04-09T09:46:14;93876.91;;;11.37;78.54
10606;BME280;5350;42.698;23.148;2023-04-09T09:48:42;93870.09;;;11.36;78.97
10606;BME280;5350;42.698;23.148;2023-04-09T09:51:11;93864.97;;;11.26;79.65
10606;BME280;5350;42.698;23.148;2023-04-09T09:53:40;93865.19;;;11.30;80.49
10606;BME280;5350;42.698;23.148;2023-04-09T09:56:13;93862.69;;;11.38;80.98
10606;BME280;5350;42.698;23.148;2023-04-09T09:58:44;93866.72;;;11.49;77.88
10606;BME280;5350;42.698;23.148;2023-04-09T10:01:13;93860.19;;;11.60;78.38
10606;BME280;5350;42.698;23.148;2023-04-09T10:03:43;93867.84;;;11.43;76.05
10606;BME280;5350;42.698;23.148;2023-04-09T10:06:12;93866.53;;;11.27;74.79
10606;BME280;5350;42.698;23.148;2023-04-09T10:08:40;93870.00;;;11.22;76.16
10606;BME280;5350;42.698;23.148;2023-04-09T10:11:07;93880.19;;;11.29;73.93
10606;BME280;5350;42.698;23.148;2023-04-09T10:13:36;93860.28;;;11.23;76.58
10606;BME280;5350;42.698;23.148;2023-04-09T10:16:06;93858.06;;;11.30;78.78
10606;BME280;5350;42.698;23.148;2023-04-09T10:18:34;93861.56;;;11.25;78.03
10606;BME280;5350;42.698;23.148;2023-04-09T10:21:06;93846.06;;;11.24;76.45
10606;BME280;5350;42.698;23.148;2023-04-09T10:23:37;93859.91;;;11.30;75.14
10606;BME280;5350;42.698;23.148;2023-04-09T10:26:04;93857.09;;;11.26;75.06
10606;BME280;5350;42.698;23.148;2023-04-09T10:28:31;93863.00;;;11.18;74.38
10606;BME280;5350;42.698;23.148;2023-04-09T10:30:58;93859.91;;;11.30;73.75
10606;BME280;5350;42.698;23.148;2023-04-09T10:33:27;93859.91;;;11.30;73.00
10606;BME280;5350;42.698;23.148;2023-04-09T10:35:54;93866.53;;;11.27;73.43
10606;BME280;5350;42.698;23.148;2023-04-09T10:38:36;93861.09;;;11.37;72.78
10606;BME280;5350;42.698;23.148;2023-04-09T10:41:07;93858.97;;;11.39;74.95
10606;BME280;5350;42.698;23.148;2023-04-09T10:43:35;93853.06;;;11.28;78.61
10606;BME280;5350;42.698;23.148;2023-04-09T10:46:07;93855.69;;;11.28;82.85
10606;BME280;5350;42.698;23.148;2023-04-09T10:49:06;93854.50;;;11.21;81.73
10606;BME280;5350;42.698;23.148;2023-04-09T10:51:34;93843.19;;;11.20;82.66
10606;BME280;5350;42.698;23.148;2023-04-09T10:54:03;93843.06;;;11.12;79.58
10606;BME280;5350;42.698;23.148;2023-04-09T10:56:29;93841.94;;;11.18;76.92
10606;BME280;5350;42.698;23.148;2023-04-09T10:58:56;93846.91;;;11.19;74.54
10606;BME280;5350;42.698;23.148;2023-04-09T11:01:23;93836.75;;;11.13;76.41
10606;BME280;5350;42.698;23.148;2023-04-09T11:04:07;93855.59;;;11.20;74.43
10606;BME280;5350;42.698;23.148;2023-04-09T11:06:35;93831.97;;;11.15;74.75
10606;BME280;5350;42.698;23.148;2023-04-09T11:09:03;93826.38;;;11.03;82.05
10606;BME280;5350;42.698;23.148;2023-04-09T11:11:30;93831.75;;;10.56;90.55
10606;BME280;5350;42.698;23.148;2023-04-09T11:13:58;93832.72;;;10.41;96.30
10606;BME280;5350;42.698;23.148;2023-04-09T11:16:28;93835.09;;;10.19;95.59
10606;BME280;5350;42.698;23.148;2023-04-09T11:18:55;93841.16;;;10.19;100.00
10606;BME280;5350;42.698;23.148;2023-04-09T11:21:26;93841.19;;;9.62;100.00
10606;BME280;5350;42.698;23.148;2023-04-09T11:23:53;93855.25;;;9.47;100.00
10606;BME280;5350;42.698;23.148;2023-04-09T11:26:22;93842.09;;;9.19;100.00
10606;BME280;5350;42.698;23.148;2023-04-09T11:28:54;93844.81;;;9.09;100.00
10606;BME280;5350;42.698;23.148;2023-04-09T11:31:26;93847.09;;;8.76;100.00
10606;BME280;5350;42.698;23.148;2023-04-09T11:33:53;93845.03;;;8.73;100.00
10606;BME280;5350;42.698;23.148;2023-04-09T11:36:20;93847.31;;;8.85;100.00
10606;BME280;5350;42.698;23.148;2023-04-09T11:38:48;93833.47;;;8.79;100.00
10606;BME280;5350;42.698;23.148;2023-04-09T11:41:15;93817.88;;;8.54;100.00
10606;BME280;5350;42.698;23.148;2023-04-09T11:43:42;93814.31;;;8.40;100.00
10606;BME280;5350;42.698;23.148;2023-04-09T11:46:09;93818.91;;;8.53;100.00
10606;BME280;5350;42.698;23.148;2023-04-09T11:48:36;93826.13;;;8.76;100.00
10606;BME280;5350;42.698;23.148;2023-04-09T11:51:03;93822.91;;;8.90;100.00
10606;BME280;5350;42.698;23.148;2023-04-09T11:53:30;93826.25;;;9.00;100.00
10606;BME280;5350;42.698;23.148;2023-04-09T11:55:58;93812.59;;;9.03;100.00
10606;BME280;5350;42.698;23.148;2023-04-09T11:58:26;93810.69;;;9.09;100.00
10606;BME280;5350;42.698;23.148;2023-04-09T12:00:53;93810.28;;;9.25;100.00
10606;BME280;5350;42.698;23.148;2023-04-09T12:03:27;93817.97;;;9.45;100.00
10606;BME280;5350;42.698;23.148;2023-04-09T12:05:54;93815.00;;;9.57;100.00
10606;BME280;5350;42.698;23.148;2023-04-09T12:08:22;93809.41;;;9.35;100.00
10606;BME280;5350;42.698;23.148;2023-04-09T12:10:49;93816.03;;;9.56;100.00
10606;BME280;5350;42.698;23.148;2023-04-09T12:13:18;93810.59;;;9.76;100.00
10606;BME280;5350;42.698;23.148;2023-04-09T12:15:48;93813.78;;;9.97;100.00
10606;BME280;5350;42.698;23.148;2023-04-09T12:18:15;93814.72;;;10.11;100.00
10606;BME280;5350;42.698;23.148;2023-04-09T12:20:42;93811.28;;;10.10;100.00
10606;BME280;5350;42.698;23.148;2023-04-09T12:23:10;93815.22;;;10.08;100.00
10606;BME280;5350;42.698;23.148;2023-04-09T12:25:39;93802.00;;;9.94;100.00
10606;BME280;5350;42.698;23.148;2023-04-09T12:28:07;93806.13;;;10.00;100.00
10606;BME280;5350;42.698;23.148;2023-04-09T12:30:36;93817.00;;;10.17;100.00
10606;BME280;5350;42.698;23.148;2023-04-09T12:33:03;93809.03;;;10.22;100.00
10606;BME280;5350;42.698;23.148;2023-04-09T12:35:29;93808.44;;;10.30;100.00
10606;BME280;5350;42.698;23.148;2023-04-09T12:37:56;93811.13;;;10.44;100.00
10606;BME280;5350;42.698;23.148;2023-04-09T12:40:24;93804.38;;;10.38;100.00
10606;BME280;5350;42.698;23.148;2023-04-09T12:42:50;93810.00;;;10.50;100.00
10606;BME280;5350;42.698;23.148;2023-04-09T12:45:18;93800.41;;;10.59;100.00
10606;BME280;5350;42.698;23.148;2023-04-09T12:47:46;93805.19;;;10.57;100.00
10606;BME280;5350;42.698;23.148;2023-04-09T12:50:14;93786.47;;;10.59;100.00
10606;BME280;5350;42.698;23.148;2023-04-09T12:52:41;93801.06;;;10.51;100.00
10606;BME280;5350;42.698;23.148;2023-04-09T12:55:09;93796.84;;;10.50;100.00
10606;BME280;5350;42.698;23.148;2023-04-09T12:57:36;93797.69;;;10.45;100.00
10606;BME280;5350;42.698;23.148;2023-04-09T13:00:05;93788.19;;;10.50;100.00
10606;BME280;5350;42.698;23.148;2023-04-09T13:02:32;93784.69;;;10.54;100.00